sensor_id;sensor_type;location;lat;lon;timestamp;pressure;altitude;pressure_sealevel;temperature;humidity
6851;BME280;3464;42.728;23.296;2023-05-23T00:00:50;95102.93;;;18.16;87.72
6851;BME280;3464;42.728;23.296;2023-05-23T00:03:17;95107.11;;;18.20;87.25
6851;BME280;3464;42.728;23.296;2023-05-23T00:05:46;95109.99;;;18.04;88.61
6851;BME280;3464;42.728;23.296;2023-05-23T00:08:13;95115.59;;;18.19;88.02
6851;BME280;3464;42.728;23.296;2023-05-23T00:10:41;95114.70;;;18.04;88.43
6851;BME280;3464;42.728;23.296;2023-05-23T00:13:07;95106.63;;;18.03;88.61
6851;BME280;3464;42.728;23.296;2023-05-23T00:15:34;95114.89;;;17.94;89.16
6851;BME280;3464;42.728;23.296;2023-05-23T00:18:03;95112.81;;;17.93;88.54
6851;BME280;3464;42.728;23.296;2023-05-23T00:20:30;95103.08;;;17.90;87.80
6851;BME280;3464;42.728;23.296;2023-05-23T00:22:56;95109.61;;;17.84;87.88
6851;BME280;3464;42.728;23.296;2023-05-23T00:25:24;95107.48;;;17.64;89.98
6851;BME280;3464;42.728;23.296;2023-05-23T00:27:50;95111.98;;;17.72;91.07
6851;BME280;3464;42.728;23.296;2023-05-23T00:30:17;95109.70;;;17.80;90.31
6851;BME280;3464;42.728;23.296;2023-05-23T00:32:43;95103.34;;;17.98;89.57
6851;BME280;3464;42.728;23.296;2023-05-23T00:35:10;95110.42;;;17.86;90.24
6851;BME280;3464;42.728;23.296;2023-05-23T00:37:37;95114.14;;;17.90;88.87
6851;BME280;3464;42.728;23.296;2023-05-23T00:40:04;95112.06;;;17.87;88.55
6851;BME280;3464;42.728;23.296;2023-05-23T00:42:30;95112.38;;;17.73;89.38
6851;BME280;3464;42.728;23.296;2023-05-23T00:44:57;95107.16;;;17.80;89.03
6851;BME280;3464;42.728;23.296;2023-05-23T00:47:24;95105.63;;;17.72;89.99
6851;BME280;3464;42.728;23.296;2023-05-23T00:49:50;95106.11;;;17.69;89.44
6851;BME280;3464;42.728;23.296;2023-05-23T00:52:17;95106.56;;;17.68;89.78
6851;BME280;3464;42.728;23.296;2023-05-23T00:54:43;95104.48;;;17.66;89.39
6851;BME280;3464;42.728;23.296;2023-05-23T00:57:10;95102.88;;;17.61;88.43
6851;BME280;3464;42.728;23.296;2023-05-23T00:59:36;95116.75;;;17.47;89.93
6851;BME280;3464;42.728;23.296;2023-05-23T01:02:03;95122.57;;;17.53;89.26
6851;BME280;3464;42.728;23.296;2023-05-23T01:04:30;95111.58;;;17.51;89.19
6851;BME280;3464;42.728;23.296;2023-05-23T01:06:56;95113.59;;;17.34;89.41
6851;BME280;3464;42.728;23.296;2023-05-23T01:09:24;95111.88;;;17.36;89.63
6851;BME280;3464;42.728;23.296;2023-05-23T01:14:34;95111.69;;;17.23;89.61
6851;BME280;3464;42.728;23.296;2023-05-23T01:17:00;95113.55;;;17.15;89.48
6851;BME280;3464;42.728;23.296;2023-05-23T01:22:05;95110.61;;;17.13;88.61
6851;BME280;3464;42.728;23.296;2023-05-23T01:27:17;95107.70;;;17.10;88.03
6851;BME280;3464;42.728;23.296;2023-05-23T01:29:39;95104.52;;;17.01;88.62
6851;BME280;3464;42.728;23.296;2023-05-23T01:32:06;95101.00;;;17.06;88.28
6851;BME280;3464;42.728;23.296;2023-05-23T01:34:31;95114.81;;;16.93;87.79
6851;BME280;3464;42.728;23.296;2023-05-23T01:36:58;95105.41;;;16.98;87.52
6851;BME280;3464;42.728;23.296;2023-05-23T01:39:25;95108.94;;;16.90;87.62
6851;BME280;3464;42.728;23.296;2023-05-23T01:41:51;95108.91;;;16.92;87.75
6851;BME280;3464;42.728;23.296;2023-05-23T01:44:18;95103.67;;;16.77;88.26
6851;BME280;3464;42.728;23.296;2023-05-23T01:46:44;95101.45;;;16.83;88.38
6851;BME280;3464;42.728;23.296;2023-05-23T01:49:12;95099.36;;;16.82;87.54
6851;BME280;3464;42.728;23.296;2023-05-23T01:51:38;95098.24;;;16.73;88.25
6851;BME280;3464;42.728;23.296;2023-05-23T01:54:04;95095.22;;;16.75;88.37
6851;BME280;3464;42.728;23.296;2023-05-23T01:56:31;95103.72;;;16.74;87.57
6851;BME280;3464;42.728;23.296;2023-05-23T01:58:57;95097.02;;;16.70;87.26
6851;BME280;3464;42.728;23.296;2023-05-23T02:01:24;95098.61;;;16.75;87.19
6851;BME280;3464;42.728;23.296;2023-05-23T02:03:51;95097.69;;;16.80;86.75
6851;BME280;3464;42.728;23.296;2023-05-23T02:06:17;95100.44;;;16.68;88.18
6851;BME280;3464;42.728;23.296;2023-05-23T02:08:44;95099.46;;;16.76;87.52
6851;BME280;3464;42.728;23.296;2023-05-23T02:11:11;95098.72;;;16.70;87.07
6851;BME280;3464;42.728;23.296;2023-05-23T02:13:37;95102.03;;;16.73;87.65
6851;BME280;3464;42.728;23.296;2023-05-23T02:16:04;95096.84;;;16.79;87.42
6851;BME280;3464;42.728;23.296;2023-05-23T02:18:31;95095.59;;;16.78;87.05
6851;BME280;3464;42.728;23.296;2023-05-23T02:20:57;95096.25;;;16.88;87.58
6851;BME280;3464;42.728;23.296;2023-05-23T02:23:24;95101.39;;;16.86;86.73
6851;BME280;3464;42.728;23.296;2023-05-23T02:25:51;95093.31;;;16.87;87.20
6851;BME280;3464;42.728;23.296;2023-05-23T02:28:18;95087.81;;;16.64;88.12
6851;BME280;3464;42.728;23.296;2023-05-23T02:30:46;95094.30;;;16.79;87.86
6851;BME280;3464;42.728;23.296;2023-05-23T02:33:13;95098.16;;;16.77;89.00
6851;BME280;3464;42.728;23.296;2023-05-23T02:35:40;95099.08;;;16.95;88.24
6851;BME280;3464;42.728;23.296;2023-05-23T02:38:07;95100.97;;;16.86;88.67
6851;BME280;3464;42.728;23.296;2023-05-23T02:40:33;95093.72;;;17.10;88.82
6851;BME280;3464;42.728;23.296;2023-05-23T02:43:00;95087.10;;;17.02;89.76
6851;BME280;3464;42.728;23.296;2023-05-23T02:45:26;95090.09;;;17.44;89.49
6851;BME280;3464;42.728;23.296;2023-05-23T02:47:53;95092.45;;;17.31;88.82
6851;BME280;3464;42.728;23.296;2023-05-23T02:50:20;95088.83;;;17.45;88.46
6851;BME280;3464;42.728;23.296;2023-05-23T02:52:46;95092.95;;;17.68;87.78
6851;BME280;3464;42.728;23.296;2023-05-23T02:55:13;95087.46;;;18.06;87.49
6851;BME280;3464;42.728;23.296;2023-05-23T02:57:40;95094.30;;;18.22;86.79
6851;BME280;3464;42.728;23.296;2023-05-23T03:00:07;95091.85;;;18.36;86.58
6851;BME280;3464;42.728;23.296;2023-05-23T03:02:34;95094.08;;;18.50;85.69
6851;BME280;3464;42.728;23.296;2023-05-23T03:05:01;95091.00;;;18.35;84.64
6851;BME280;3464;42.728;23.296;2023-05-23T03:07:27;95087.20;;;18.53;85.06
6851;BME280;3464;42.728;23.296;2023-05-23T03:09:55;95088.55;;;18.50;84.69
6851;BME280;3464;42.728;23.296;2023-05-23T03:12:21;95093.88;;;18.22;85.14
6851;BME280;3464;42.728;23.296;2023-05-23T03:14:48;95098.14;;;18.04;86.11
6851;BME280;3464;42.728;23.296;2023-05-23T03:17:14;95094.11;;;18.48;85.52
6851;BME280;3464;42.728;23.296;2023-05-23T03:19:41;95089.40;;;18.50;83.77
6851;BME280;3464;42.728;23.296;2023-05-23T03:22:07;95091.66;;;18.61;84.07
6851;BME280;3464;42.728;23.296;2023-05-23T03:24:34;95095.92;;;18.24;84.74
6851;BME280;3464;42.728;23.296;2023-05-23T03:27:01;95101.97;;;18.39;85.41
6851;BME280;3464;42.728;23.296;2023-05-23T03:29:28;95108.47;;;18.84;84.47
6851;BME280;3464;42.728;23.296;2023-05-23T03:31:55;95100.78;;;18.70;83.79
6851;BME280;3464;42.728;23.296;2023-05-23T03:34:21;95108.20;;;18.45;84.08
6851;BME280;3464;42.728;23.296;2023-05-23T03:36:48;95109.92;;;18.61;84.27
6851;BME280;3464;42.728;23.296;2023-05-23T03:39:15;95113.48;;;18.72;83.79
6851;BME280;3464;42.728;23.296;2023-05-23T03:41:42;95114.50;;;18.98;83.68
6851;BME280;3464;42.728;23.296;2023-05-23T03:44:08;95112.84;;;19.12;83.05
6851;BME280;3464;42.728;23.296;2023-05-23T03:46:35;95121.64;;;19.17;82.60
6851;BME280;3464;42.728;23.296;2023-05-23T03:49:02;95124.41;;;18.43;82.13
6851;BME280;3464;42.728;23.296;2023-05-23T03:51:29;95128.30;;;18.57;83.72
6851;BME280;3464;42.728;23.296;2023-05-23T03:53:56;95123.23;;;18.89;83.51
6851;BME280;3464;42.728;23.296;2023-05-23T03:56:22;95125.53;;;18.66;81.79
6851;BME280;3464;42.728;23.296;2023-05-23T03:58:49;95120.95;;;19.11;81.79
6851;BME280;3464;42.728;23.296;2023-05-23T04:01:15;95119.25;;;18.79;80.90
6851;BME280;3464;42.728;23.296;2023-05-23T04:03:42;95131.13;;;18.96;80.63
6851;BME280;3464;42.728;23.296;2023-05-23T04:06:08;95123.63;;;19.07;80.00
6851;BME280;3464;42.728;23.296;2023-05-23T04:08:35;95123.55;;;19.10;78.92
6851;BME280;3464;42.728;23.296;2023-05-23T04:11:03;95128.77;;;18.89;78.69
6851;BME280;3464;42.728;23.296;2023-05-23T04:13:30;95121.22;;;19.18;78.99
6851;BME280;3464;42.728;23.296;2023-05-23T04:15:57;95117.23;;;19.23;77.80
6851;BME280;3464;42.728;23.296;2023-05-23T04:18:23;95118.82;;;19.43;76.92
6851;BME280;3464;42.728;23.296;2023-05-23T04:20:51;95113.67;;;19.46;76.16
6851;BME280;3464;42.728;23.296;2023-05-23T04:23:18;95108.17;;;19.87;75.22
6851;BME280;3464;42.728;23.296;2023-05-23T04:25:44;95106.47;;;19.87;74.58
6851;BME280;3464;42.728;23.296;2023-05-23T04:28:11;95110.33;;;20.00;73.01
6851;BME280;3464;42.728;23.296;2023-05-23T04:30:38;95122.14;;;19.61;74.11
6851;BME280;3464;42.728;23.296;2023-05-23T04:33:04;95124.95;;;19.52;74.18
6851;BME280;3464;42.728;23.296;2023-05-23T04:35:31;95126.14;;;19.55;73.33
6851;BME280;3464;42.728;23.296;2023-05-23T04:37:57;95130.23;;;19.14;73.29
6851;BME280;3464;42.728;23.296;2023-05-23T04:40:24;95130.55;;;19.35;74.47
6851;BME280;3464;42.728;23.296;2023-05-23T04:42:51;95122.14;;;19.61;73.76
6851;BME280;3464;42.728;23.296;2023-05-23T04:45:19;95123.95;;;20.01;72.95
6851;BME280;3464;42.728;23.296;2023-05-23T04:47:45;95133.70;;;20.02;71.97
6851;BME280;3464;42.728;23.296;2023-05-23T04:50:12;95135.42;;;19.58;71.32
6851;BME280;3464;42.728;23.296;2023-05-23T04:52:41;95134.55;;;19.28;73.74
6851;BME280;3464;42.728;23.296;2023-05-23T04:55:08;95138.31;;;19.90;73.10
6851;BME280;3464;42.728;23.296;2023-05-23T04:57:35;95134.36;;;19.65;71.62
6851;BME280;3464;42.728;23.296;2023-05-23T05:00:04;95133.23;;;20.19;70.65
6851;BME280;3464;42.728;23.296;2023-05-23T05:02:38;95135.19;;;20.64;68.65
6851;BME280;3464;42.728;23.296;2023-05-23T05:05:05;95130.81;;;20.81;67.61
6851;BME280;3464;42.728;23.296;2023-05-23T05:07:32;95129.94;;;20.42;67.34
6851;BME280;3464;42.728;23.296;2023-05-23T05:09:59;95132.81;;;20.98;67.05
6851;BME280;3464;42.728;23.296;2023-05-23T05:12:25;95132.99;;;21.05;66.33
6851;BME280;3464;42.728;23.296;2023-05-23T05:14:52;95143.16;;;20.41;67.54
6851;BME280;3464;42.728;23.296;2023-05-23T05:17:19;95150.30;;;20.45;68.62
6851;BME280;3464;42.728;23.296;2023-05-23T05:19:45;95142.35;;;19.97;68.20
6851;BME280;3464;42.728;23.296;2023-05-23T05:22:12;95160.07;;;20.19;68.00
6851;BME280;3464;42.728;23.296;2023-05-23T05:24:39;95148.28;;;20.54;69.34
6851;BME280;3464;42.728;23.296;2023-05-23T05:27:05;95148.55;;;20.60;67.57
6851;BME280;3464;42.728;23.296;2023-05-23T05:29:32;95144.76;;;20.71;67.10
6851;BME280;3464;42.728;23.296;2023-05-23T05:31:59;95147.36;;;20.97;66.92
6851;BME280;3464;42.728;23.296;2023-05-23T05:34:25;95145.26;;;21.45;65.42
6851;BME280;3464;42.728;23.296;2023-05-23T05:36:52;95141.78;;;21.70;64.65
6851;BME280;3464;42.728;23.296;2023-05-23T05:39:18;95142.24;;;22.37;62.72
6851;BME280;3464;42.728;23.296;2023-05-23T05:41:45;95144.45;;;22.89;62.05
6851;BME280;3464;42.728;23.296;2023-05-23T05:44:12;95146.11;;;23.41;59.62
6851;BME280;3464;42.728;23.296;2023-05-23T05:46:39;95136.72;;;23.98;57.91
6851;BME280;3464;42.728;23.296;2023-05-23T05:49:05;95136.31;;;24.52;56.60
6851;BME280;3464;42.728;23.296;2023-05-23T05:51:32;95143.16;;;24.35;56.36
6851;BME280;3464;42.728;23.296;2023-05-23T05:54:00;95153.77;;;23.81;56.98
6851;BME280;3464;42.728;23.296;2023-05-23T05:56:26;95151.30;;;23.98;57.91
6851;BME280;3464;42.728;23.296;2023-05-23T05:58:53;95152.45;;;24.46;56.14
6851;BME280;3464;42.728;23.296;2023-05-23T06:01:20;95152.50;;;24.82;54.84
6851;BME280;3464;42.728;23.296;2023-05-23T06:03:46;95155.65;;;24.70;55.06
6851;BME280;3464;42.728;23.296;2023-05-23T06:06:13;95154.36;;;24.70;54.94
6851;BME280;3464;42.728;23.296;2023-05-23T06:08:40;95150.61;;;24.49;54.62
6851;BME280;3464;42.728;23.296;2023-05-23T06:11:06;95149.76;;;24.58;54.55
6851;BME280;3464;42.728;23.296;2023-05-23T06:13:33;95146.30;;;24.59;54.21
6851;BME280;3464;42.728;23.296;2023-05-23T06:15:59;95146.50;;;25.16;53.51
6851;BME280;3464;42.728;23.296;2023-05-23T06:18:26;95148.08;;;25.44;52.50
6851;BME280;3464;42.728;23.296;2023-05-23T06:20:53;95149.40;;;25.52;52.26
6851;BME280;3464;42.728;23.296;2023-05-23T06:23:20;95155.74;;;24.14;54.39
6851;BME280;3464;42.728;23.296;2023-05-23T06:25:47;95151.38;;;24.60;54.25
6851;BME280;3464;42.728;23.296;2023-05-23T06:28:14;95150.20;;;24.76;54.47
6851;BME280;3464;42.728;23.296;2023-05-23T06:30:40;95138.20;;;25.77;52.15
6851;BME280;3464;42.728;23.296;2023-05-23T06:33:07;95136.22;;;25.90;51.01
6851;BME280;3464;42.728;23.296;2023-05-23T06:35:33;95149.66;;;26.90;49.94
6851;BME280;3464;42.728;23.296;2023-05-23T06:38:00;95140.08;;;28.01;47.54
6851;BME280;3464;42.728;23.296;2023-05-23T06:40:26;95146.00;;;27.74;47.62
6851;BME280;3464;42.728;23.296;2023-05-23T06:42:53;95139.00;;;27.97;47.52
6851;BME280;3464;42.728;23.296;2023-05-23T06:45:20;95142.81;;;27.34;48.22
6851;BME280;3464;42.728;23.296;2023-05-23T06:47:47;95140.50;;;26.62;48.86
6851;BME280;3464;42.728;23.296;2023-05-23T06:50:15;95140.20;;;27.99;46.79
6851;BME280;3464;42.728;23.296;2023-05-23T06:52:42;95141.57;;;28.52;45.62
6851;BME280;3464;42.728;23.296;2023-05-23T06:55:10;95136.31;;;29.00;44.54
6851;BME280;3464;42.728;23.296;2023-05-23T06:57:37;95127.85;;;29.04;44.82
6851;BME280;3464;42.728;23.296;2023-05-23T07:00:04;95122.81;;;29.85;43.47
6851;BME280;3464;42.728;23.296;2023-05-23T07:02:30;95129.81;;;30.81;42.10
6851;BME280;3464;42.728;23.296;2023-05-23T07:04:57;95121.23;;;32.44;40.32
6851;BME280;3464;42.728;23.296;2023-05-23T07:07:23;95122.20;;;33.23;38.08
6851;BME280;3464;42.728;23.296;2023-05-23T07:09:51;95117.05;;;33.06;38.32
6851;BME280;3464;42.728;23.296;2023-05-23T07:12:17;95123.30;;;34.72;35.21
6851;BME280;3464;42.728;23.296;2023-05-23T07:14:44;95113.17;;;35.50;34.21
6851;BME280;3464;42.728;23.296;2023-05-23T07:17:10;95102.30;;;37.69;31.12
6851;BME280;3464;42.728;23.296;2023-05-23T07:19:37;95103.41;;;38.97;29.51
6851;BME280;3464;42.728;23.296;2023-05-23T07:22:04;95099.73;;;40.61;27.96
6851;BME280;3464;42.728;23.296;2023-05-23T07:24:30;95097.16;;;41.14;26.79
6851;BME280;3464;42.728;23.296;2023-05-23T07:26:58;95095.22;;;41.90;25.82
6851;BME280;3464;42.728;23.296;2023-05-23T07:29:27;95087.27;;;41.57;26.03
6851;BME280;3464;42.728;23.296;2023-05-23T07:31:53;95088.69;;;41.34;26.36
6851;BME280;3464;42.728;23.296;2023-05-23T07:34:20;95076.25;;;39.93;27.39
6851;BME280;3464;42.728;23.296;2023-05-23T07:36:46;95080.38;;;37.48;29.17
6851;BME280;3464;42.728;23.296;2023-05-23T07:39:13;95082.73;;;37.20;30.27
6851;BME280;3464;42.728;23.296;2023-05-23T07:41:39;95079.18;;;38.81;28.99
6851;BME280;3464;42.728;23.296;2023-05-23T07:44:19;95072.57;;;40.98;27.05
6851;BME280;3464;42.728;23.296;2023-05-23T07:46:57;95071.06;;;41.67;25.60
6851;BME280;3464;42.728;23.296;2023-05-23T07:49:25;95074.49;;;40.20;26.63
6851;BME280;3464;42.728;23.296;2023-05-23T07:51:53;95078.27;;;37.43;29.03
6851;BME280;3464;42.728;23.296;2023-05-23T07:54:20;95071.52;;;37.49;29.58
6851;BME280;3464;42.728;23.296;2023-05-23T07:56:49;95082.51;;;37.27;29.95
6851;BME280;3464;42.728;23.296;2023-05-23T07:59:17;95073.41;;;37.00;30.06
6851;BME280;3464;42.728;23.296;2023-05-23T08:01:43;95074.22;;;37.82;29.43
6851;BME280;3464;42.728;23.296;2023-05-23T08:04:24;95075.27;;;37.89;28.85
6851;BME280;3464;42.728;23.296;2023-05-23T08:06:52;95077.96;;;36.44;30.05
6851;BME280;3464;42.728;23.296;2023-05-23T08:09:19;95066.73;;;36.96;30.21
6851;BME280;3464;42.728;23.296;2023-05-23T08:11:45;95073.23;;;36.53;31.12
6851;BME280;3464;42.728;23.296;2023-05-23T08:14:12;95073.94;;;34.09;33.64
6851;BME280;3464;42.728;23.296;2023-05-23T08:16:39;95075.38;;;34.47;33.06
6851;BME280;3464;42.728;23.296;2023-05-23T08:19:06;95070.17;;;36.03;31.69
6851;BME280;3464;42.728;23.296;2023-05-23T08:21:34;95074.38;;;35.82;31.52
6851;BME280;3464;42.728;23.296;2023-05-23T08:23:59;95077.89;;;32.75;35.32
6851;BME280;3464;42.728;23.296;2023-05-23T08:26:28;95080.72;;;31.97;37.20
6851;BME280;3464;42.728;23.296;2023-05-23T08:28:56;95075.38;;;32.30;36.87
6851;BME280;3464;42.728;23.296;2023-05-23T08:31:22;95073.67;;;31.37;38.04
6851;BME280;3464;42.728;23.296;2023-05-23T08:33:49;95070.40;;;31.90;37.59
6851;BME280;3464;42.728;23.296;2023-05-23T08:36:17;95065.89;;;32.03;37.09
6851;BME280;3464;42.728;23.296;2023-05-23T08:38:43;95066.27;;;30.80;39.13
6851;BME280;3464;42.728;23.296;2023-05-23T08:41:15;95070.52;;;28.76;43.16
6851;BME280;3464;42.728;23.296;2023-05-23T08:43:38;95070.44;;;29.54;42.38
6851;BME280;3464;42.728;23.296;2023-05-23T08:46:05;95061.47;;;27.96;45.27
6851;BME280;3464;42.728;23.296;2023-05-23T08:48:32;95056.11;;;28.92;44.52
6851;BME280;3464;42.728;23.296;2023-05-23T08:50:59;95062.64;;;28.24;44.85
6851;BME280;3464;42.728;23.296;2023-05-23T08:53:26;95065.27;;;28.58;45.00
6851;BME280;3464;42.728;23.296;2023-05-23T08:55:53;95061.79;;;27.48;46.32
6851;BME280;3464;42.728;23.296;2023-05-23T08:58:19;95062.45;;;28.41;45.69
6851;BME280;3464;42.728;23.296;2023-05-23T09:00:47;95052.38;;;29.09;44.53
6851;BME280;3464;42.728;23.296;2023-05-23T09:03:15;95053.05;;;28.86;43.82
6851;BME280;3464;42.728;23.296;2023-05-23T09:05:42;95048.78;;;28.85;43.94
6851;BME280;3464;42.728;23.296;2023-05-23T09:08:10;95047.34;;;29.75;41.88
6851;BME280;3464;42.728;23.296;2023-05-23T09:10:37;95041.13;;;30.38;39.57
6851;BME280;3464;42.728;23.296;2023-05-23T09:13:03;95035.34;;;30.29;39.97
6851;BME280;3464;42.728;23.296;2023-05-23T09:15:30;95040.13;;;31.10;39.81
6851;BME280;3464;42.728;23.296;2023-05-23T09:17:59;95044.72;;;29.32;41.82
6851;BME280;3464;42.728;23.296;2023-05-23T09:20:25;95038.64;;;29.20;41.82
6851;BME280;3464;42.728;23.296;2023-05-23T09:22:51;95027.80;;;29.14;41.97
6851;BME280;3464;42.728;23.296;2023-05-23T09:25:18;95033.45;;;29.77;41.03
6851;BME280;3464;42.728;23.296;2023-05-23T09:27:45;95029.83;;;29.91;39.91
6851;BME280;3464;42.728;23.296;2023-05-23T09:30:12;95029.31;;;29.61;40.39
6851;BME280;3464;42.728;23.296;2023-05-23T09:32:39;95031.16;;;30.14;40.45
6851;BME280;3464;42.728;23.296;2023-05-23T09:35:06;95024.61;;;29.85;40.69
6851;BME280;3464;42.728;23.296;2023-05-23T09:37:34;95021.46;;;29.43;42.06
6851;BME280;3464;42.728;23.296;2023-05-23T09:40:02;95017.98;;;29.37;41.97
6851;BME280;3464;42.728;23.296;2023-05-23T09:42:33;95017.43;;;28.82;39.05
6851;BME280;3464;42.728;23.296;2023-05-23T09:45:00;95012.22;;;29.15;38.79
6851;BME280;3464;42.728;23.296;2023-05-23T09:47:26;95000.70;;;28.87;39.68
6851;BME280;3464;42.728;23.296;2023-05-23T09:49:53;95006.30;;;28.61;41.11
6851;BME280;3464;42.728;23.296;2023-05-23T09:52:20;95013.81;;;26.57;43.19
6851;BME280;3464;42.728;23.296;2023-05-23T09:54:48;95016.63;;;27.33;42.73
6851;BME280;3464;42.728;23.296;2023-05-23T09:57:14;95004.20;;;27.39;42.43
6851;BME280;3464;42.728;23.296;2023-05-23T09:59:50;95001.89;;;28.03;41.75
6851;BME280;3464;42.728;23.296;2023-05-23T10:02:11;94996.58;;;28.77;39.66
6851;BME280;3464;42.728;23.296;2023-05-23T10:04:39;94996.56;;;28.19;39.88
6851;BME280;3464;42.728;23.296;2023-05-23T10:07:09;94995.66;;;27.09;41.37
6851;BME280;3464;42.728;23.296;2023-05-23T10:09:35;94997.84;;;27.44;39.76
6851;BME280;3464;42.728;23.296;2023-05-23T10:15:03;95002.89;;;27.95;38.46
6851;BME280;3464;42.728;23.296;2023-05-23T10:17:48;95008.64;;;27.15;40.19
6851;BME280;3464;42.728;23.296;2023-05-23T10:20:13;95001.19;;;26.89;39.89
6851;BME280;3464;42.728;23.296;2023-05-23T10:22:39;94989.32;;;26.93;39.94
6851;BME280;3464;42.728;23.296;2023-05-23T10:25:06;94995.23;;;27.72;38.02
6851;BME280;3464;42.728;23.296;2023-05-23T10:27:33;94994.86;;;28.45;36.67
6851;BME280;3464;42.728;23.296;2023-05-23T10:30:00;94985.98;;;29.00;37.22
6851;BME280;3464;42.728;23.296;2023-05-23T10:32:26;94978.20;;;28.75;37.04
6851;BME280;3464;42.728;23.296;2023-05-23T10:34:58;94978.14;;;28.69;35.92
6851;BME280;3464;42.728;23.296;2023-05-23T10:37:39;94986.98;;;28.01;36.66
6851;BME280;3464;42.728;23.296;2023-05-23T10:40:26;94996.31;;;27.20;36.99
6851;BME280;3464;42.728;23.296;2023-05-23T10:43:11;94983.52;;;26.96;37.92
6851;BME280;3464;42.728;23.296;2023-05-23T10:45:40;94975.91;;;27.57;36.79
6851;BME280;3464;42.728;23.296;2023-05-23T10:48:34;94977.80;;;27.54;36.84
6851;BME280;3464;42.728;23.296;2023-05-23T10:51:14;94982.16;;;27.67;35.62
6851;BME280;3464;42.728;23.296;2023-05-23T10:53:44;94975.66;;;27.34;36.92
6851;BME280;3464;42.728;23.296;2023-05-23T10:56:10;94963.40;;;28.05;35.81
6851;BME280;3464;42.728;23.296;2023-05-23T10:58:37;94972.59;;;28.16;36.08
6851;BME280;3464;42.728;23.296;2023-05-23T11:01:05;94959.32;;;28.73;36.15
6851;BME280;3464;42.728;23.296;2023-05-23T11:03:35;94961.78;;;28.17;36.46
6851;BME280;3464;42.728;23.296;2023-05-23T11:06:03;94967.47;;;29.07;36.12
6851;BME280;3464;42.728;23.296;2023-05-23T11:08:38;94962.91;;;28.06;36.44
6851;BME280;3464;42.728;23.296;2023-05-23T11:11:04;94962.08;;;28.45;35.89
6851;BME280;3464;42.728;23.296;2023-05-23T11:16:25;94957.78;;;28.31;35.31
6851;BME280;3464;42.728;23.296;2023-05-23T11:18:50;94948.39;;;28.56;34.85
6851;BME280;3464;42.728;23.296;2023-05-23T11:21:18;94946.59;;;29.20;34.64
6851;BME280;3464;42.728;23.296;2023-05-23T11:23:45;94945.04;;;28.48;35.42
6851;BME280;3464;42.728;23.296;2023-05-23T11:26:28;94940.95;;;28.51;35.90
6851;BME280;3464;42.728;23.296;2023-05-23T11:28:55;94951.53;;;28.41;35.51
6851;BME280;3464;42.728;23.296;2023-05-23T11:31:22;94946.16;;;28.05;35.21
6851;BME280;3464;42.728;23.296;2023-05-23T11:33:50;94941.25;;;28.72;34.32
6851;BME280;3464;42.728;23.296;2023-05-23T11:36:16;94936.78;;;28.62;34.71
6851;BME280;3464;42.728;23.296;2023-05-23T11:38:42;94932.34;;;29.20;34.14
6851;BME280;3464;42.728;23.296;2023-05-23T11:41:09;94930.41;;;29.05;35.27
6851;BME280;3464;42.728;23.296;2023-05-23T11:43:36;94928.23;;;28.98;35.39
6851;BME280;3464;42.728;23.296;2023-05-23T11:46:07;94928.29;;;28.66;35.43
6851;BME280;3464;42.728;23.296;2023-05-23T11:48:34;94932.70;;;28.83;34.75
6851;BME280;3464;42.728;23.296;2023-05-23T11:51:00;94932.16;;;29.41;34.13
6851;BME280;3464;42.728;23.296;2023-05-23T11:53:27;94921.16;;;29.13;35.21
6851;BME280;3464;42.728;23.296;2023-05-23T11:55:54;94921.00;;;28.84;34.86
6851;BME280;3464;42.728;23.296;2023-05-23T11:58:21;94915.39;;;28.14;35.96
6851;BME280;3464;42.728;23.296;2023-05-23T12:00:48;94924.20;;;27.30;37.37
6851;BME280;3464;42.728;23.296;2023-05-23T12:03:14;94918.09;;;27.51;36.60
6851;BME280;3464;42.728;23.296;2023-05-23T12:05:43;94914.57;;;28.19;36.14
6851;BME280;3464;42.728;23.296;2023-05-23T12:08:11;94921.12;;;27.98;36.11
6851;BME280;3464;42.728;23.296;2023-05-23T12:10:47;94912.34;;;29.10;35.66
6851;BME280;3464;42.728;23.296;2023-05-23T12:13:05;94926.24;;;29.15;34.73
6851;BME280;3464;42.728;23.296;2023-05-23T12:15:34;94923.89;;;28.55;35.68
6851;BME280;3464;42.728;23.296;2023-05-23T12:18:05;94907.48;;;28.35;35.28
6851;BME280;3464;42.728;23.296;2023-05-23T12:20:32;94899.80;;;28.91;34.91
6851;BME280;3464;42.728;23.296;2023-05-23T12:23:04;94899.38;;;29.83;33.33
6851;BME280;3464;42.728;23.296;2023-05-23T12:25:40;94902.90;;;28.46;35.40
6851;BME280;3464;42.728;23.296;2023-05-23T12:28:08;94899.48;;;28.06;35.14
6851;BME280;3464;42.728;23.296;2023-05-23T12:30:41;94891.81;;;28.05;34.75
6851;BME280;3464;42.728;23.296;2023-05-23T12:33:09;94889.17;;;28.57;34.94
6851;BME280;3464;42.728;23.296;2023-05-23T12:35:42;94878.08;;;28.87;34.27
6851;BME280;3464;42.728;23.296;2023-05-23T12:38:09;94884.06;;;28.56;34.12
6851;BME280;3464;42.728;23.296;2023-05-23T12:40:37;94881.88;;;28.75;33.34
6851;BME280;3464;42.728;23.296;2023-05-23T12:43:07;94883.59;;;27.85;34.91
6851;BME280;3464;42.728;23.296;2023-05-23T12:45:31;94880.64;;;28.11;34.18
6851;BME280;3464;42.728;23.296;2023-05-23T12:47:58;94887.76;;;27.61;34.29
6851;BME280;3464;42.728;23.296;2023-05-23T12:50:25;94883.30;;;27.70;33.96
6851;BME280;3464;42.728;23.296;2023-05-23T12:52:51;94869.17;;;28.33;33.61
6851;BME280;3464;42.728;23.296;2023-05-23T12:55:19;94874.34;;;27.61;33.72
6851;BME280;3464;42.728;23.296;2023-05-23T12:57:45;94882.10;;;27.00;33.74
6851;BME280;3464;42.728;23.296;2023-05-23T13:00:12;94869.55;;;27.76;33.17
6851;BME280;3464;42.728;23.296;2023-05-23T13:02:39;94863.30;;;28.13;33.04
6851;BME280;3464;42.728;23.296;2023-05-23T13:05:08;94864.84;;;28.21;32.69
6851;BME280;3464;42.728;23.296;2023-05-23T13:07:34;94861.14;;;28.25;32.23
6851;BME280;3464;42.728;23.296;2023-05-23T13:10:01;94861.66;;;27.91;32.45
6851;BME280;3464;42.728;23.296;2023-05-23T13:12:27;94857.11;;;27.81;31.50
6851;BME280;3464;42.728;23.296;2023-05-23T13:14:54;94844.68;;;28.51;31.47
6851;BME280;3464;42.728;23.296;2023-05-23T13:17:21;94852.47;;;28.44;31.73
6851;BME280;3464;42.728;23.296;2023-05-23T13:19:48;94850.06;;;28.29;32.26
6851;BME280;3464;42.728;23.296;2023-05-23T13:22:15;94851.53;;;28.89;31.82
6851;BME280;3464;42.728;23.296;2023-05-23T13:24:42;94859.13;;;27.91;32.89